createdAt,value
2022-11-05T00:00:16.004Z,74.39
2022-11-05T00:03:34.137Z,74.52
2022-11-05T00:06:52.208Z,75.10
2022-11-05T00:10:16.227Z,74.83
2022-11-05T00:13:37.148Z,74.49
2022-11-05T00:16:48.624Z,75.45
2022-11-05T00:19:54.420Z,75.84
2022-11-05T00:23:16.583Z,76.26
2022-11-05T00:26:22.382Z,76.07
2022-11-05T00:29:47.132Z,75.85
2022-11-05T00:32:55.547Z,75.77
2022-11-05T00:36:08.469Z,75.60
2022-11-05T00:39:19.554Z,75.29
2022-11-05T00:42:37.754Z,75.03
2022-11-05T00:45:46.837Z,74.55
2022-11-05T00:49:04.865Z,75.32
2022-11-05T00:52:22.726Z,75.88
2022-11-05T00:55:38.321Z,76.34
2022-11-05T00:58:44.164Z,76.27
2022-11-05T01:01:53.161Z,76.61
2022-11-05T01:04:59.207Z,76.26
2022-11-05T01:08:05.211Z,75.87
2022-11-05T01:11:33.591Z,75.69
2022-11-05T01:14:39.574Z,75.59
2022-11-05T01:17:48.080Z,75.35
2022-11-05T01:20:54.561Z,75.43
2022-11-05T01:24:00.971Z,75.31
2022-11-05T01:27:12.575Z,74.78
2022-11-05T01:30:21.457Z,75.36
2022-11-05T01:33:32.810Z,75.49
2022-11-05T01:36:38.706Z,75.97
2022-11-05T01:39:44.575Z,75.12
2022-11-05T01:42:50.883Z,75.11
2022-11-05T01:46:02.030Z,74.87
2022-11-05T01:49:24.312Z,74.75
2022-11-05T01:52:33.805Z,74.57
2022-11-05T01:55:47.343Z,75.04
2022-11-05T01:59:10.926Z,74.27
2022-11-05T02:02:17.043Z,74.76
2022-11-05T02:05:26.574Z,74.93
2022-11-05T02:08:58.660Z,74.37
2022-11-05T02:12:05.269Z,74.82
2022-11-05T02:15:16.299Z,74.52
2022-11-05T02:18:41.217Z,75.06
2022-11-05T02:22:31.456Z,75.47
2022-11-05T02:26:39.374Z,75.21
2022-11-05T02:30:08.990Z,75.76
2022-11-05T02:33:34.305Z,75.79
2022-11-05T02:36:53.218Z,75.12
2022-11-05T02:40:17.147Z,74.89
2022-11-05T02:43:39.697Z,74.63
2022-11-05T02:47:02.177Z,74.79
2022-11-05T02:50:29.257Z,74.20
2022-11-05T02:53:51.646Z,73.89
2022-11-05T02:57:03.093Z,74.44
2022-11-05T03:00:47.740Z,74.49
2022-11-05T03:04:00.394Z,74.22
2022-11-05T03:07:45.427Z,74.41
2022-11-05T03:11:05.440Z,73.91
2022-11-05T03:14:27.177Z,73.58
2022-11-05T03:17:45.551Z,73.62
2022-11-05T03:21:02.544Z,73.87
2022-11-05T03:24:21.223Z,73.92
2022-11-05T03:27:34.724Z,74.30
2022-11-05T03:30:45.991Z,75.45
2022-11-05T03:33:56.112Z,75.22
2022-11-05T03:37:07.560Z,76.41
2022-11-05T03:40:22.591Z,76.86
2022-11-05T03:43:43.193Z,77.02
2022-11-05T03:46:55.419Z,78.13
2022-11-05T03:50:17.371Z,77.86
2022-11-05T03:53:31.498Z,78.07
2022-11-05T03:57:00.863Z,78.85
2022-11-05T04:00:11.534Z,78.86
2022-11-05T04:03:20.648Z,79.42
2022-11-05T04:06:38.762Z,80.51
2022-11-05T04:09:56.703Z,80.95
2022-11-05T04:13:17.268Z,80.95
2022-11-05T04:16:40.937Z,81.28
2022-11-05T04:20:01.073Z,82.10
2022-11-05T04:23:22.263Z,82.08
2022-11-05T04:26:27.777Z,82.05
2022-11-05T04:29:48.349Z,81.55
2022-11-05T04:33:07.698Z,81.76
2022-11-05T04:36:13.389Z,81.60
2022-11-05T04:39:20.013Z,81.86
2022-11-05T04:42:25.569Z,81.93
2022-11-05T04:45:37.204Z,81.74
2022-11-05T04:48:42.852Z,81.30
2022-11-05T04:51:48.382Z,81.18
2022-11-05T04:54:53.921Z,81.27
2022-11-05T04:57:59.551Z,81.64
2022-11-05T05:01:07.843Z,81.72
2022-11-05T05:04:13.491Z,82.00
2022-11-05T05:07:19.103Z,81.78
2022-11-05T05:10:24.647Z,81.60
2022-11-05T05:13:30.169Z,81.92
2022-11-05T05:16:38.343Z,81.55
2022-11-05T05:19:56.464Z,81.33
2022-11-05T05:23:02.001Z,81.05
2022-11-05T05:26:07.704Z,81.21
2022-11-05T05:29:15.004Z,81.30
2022-11-05T05:32:23.570Z,81.16
2022-11-05T05:35:29.193Z,81.11
2022-11-05T05:38:34.792Z,81.45
2022-11-05T05:41:40.352Z,80.90
2022-11-05T05:44:45.965Z,81.35
2022-11-05T05:47:54.094Z,81.23
2022-11-05T05:51:04.705Z,81.37
2022-11-05T05:54:10.321Z,81.13
2022-11-05T05:57:15.983Z,81.37
2022-11-05T06:00:21.859Z,80.89
2022-11-05T06:03:32.714Z,80.54
2022-11-05T06:06:40.577Z,80.39
2022-11-05T06:09:46.845Z,80.37
2022-11-05T06:12:52.391Z,80.98
2022-11-05T06:16:05.054Z,80.91
2022-11-05T06:19:13.231Z,80.82
2022-11-05T06:22:18.917Z,80.42
2022-11-05T06:25:24.601Z,80.59
2022-11-05T06:28:30.514Z,80.93
2022-11-05T06:31:36.137Z,79.94
2022-11-05T06:34:44.529Z,80.34
2022-11-05T06:37:50.235Z,80.89
2022-11-05T06:40:56.226Z,80.36
2022-11-05T06:44:05.072Z,80.57
2022-11-05T06:47:12.762Z,79.75
2022-11-05T06:50:21.203Z,79.94
2022-11-05T06:53:27.031Z,79.67
2022-11-05T06:56:32.610Z,79.29
2022-11-05T06:59:38.649Z,79.53
2022-11-05T07:02:44.353Z,79.65
2022-11-05T07:05:54.348Z,79.87
2022-11-05T07:09:00.042Z,79.76
2022-11-05T07:12:05.926Z,79.52
2022-11-05T07:15:13.607Z,79.35
2022-11-05T07:18:19.946Z,79.27
2022-11-05T07:21:28.418Z,79.36
2022-11-05T07:24:35.001Z,79.35
2022-11-05T07:27:42.258Z,79.62
2022-11-05T07:30:48.516Z,79.01
2022-11-05T07:33:54.166Z,78.32
2022-11-05T07:37:03.177Z,78.79
2022-11-05T07:40:18.303Z,78.46
2022-11-05T07:43:24.103Z,78.99
2022-11-05T07:46:29.958Z,78.98
2022-11-05T07:49:38.482Z,79.02
2022-11-05T07:52:54.315Z,79.40
2022-11-05T07:56:00.971Z,79.36
2022-11-05T07:59:07.054Z,79.29
2022-11-05T08:02:14.187Z,78.73
2022-11-05T08:05:20.206Z,78.80
2022-11-05T08:08:29.193Z,78.63
2022-11-05T08:11:36.036Z,78.16
2022-11-05T08:14:43.745Z,78.57
2022-11-05T08:17:49.849Z,79.06
2022-11-05T08:20:55.502Z,78.83
2022-11-05T08:24:03.945Z,79.26
2022-11-05T08:27:09.637Z,79.81
2022-11-05T08:30:17.790Z,79.31
2022-11-05T08:33:24.635Z,79.71
2022-11-05T08:36:30.209Z,80.06
2022-11-05T08:39:38.523Z,79.58
2022-11-05T08:42:44.166Z,80.27
2022-11-05T08:46:05.590Z,80.50
2022-11-05T08:49:15.729Z,79.93
2022-11-05T08:52:21.335Z,79.26
2022-11-05T08:55:41.109Z,79.37
2022-11-05T08:58:46.868Z,79.36
2022-11-05T09:01:53.310Z,79.64
2022-11-05T09:04:58.999Z,78.97
2022-11-05T09:08:04.657Z,79.52
2022-11-05T09:11:19.099Z,78.92
2022-11-05T09:14:27.170Z,79.10
2022-11-05T09:17:33.025Z,79.49
2022-11-05T09:20:40.213Z,79.03
2022-11-05T09:23:45.934Z,78.75
2022-11-05T09:26:54.179Z,79.62
2022-11-05T09:29:59.828Z,79.64
2022-11-05T09:33:12.705Z,79.08
2022-11-05T09:36:22.506Z,79.36
2022-11-05T09:39:38.172Z,78.90
2022-11-05T09:42:52.590Z,78.83
2022-11-05T09:46:05.219Z,78.82
2022-11-05T09:49:29.205Z,78.80
2022-11-05T09:52:37.848Z,78.64
2022-11-05T09:55:48.896Z,78.98
2022-11-05T09:59:04.321Z,78.87
2022-11-05T10:02:22.396Z,78.36
2022-11-05T10:05:31.690Z,78.58
2022-11-05T10:08:47.797Z,78.92
2022-11-05T10:12:00.963Z,79.13
2022-11-05T10:15:21.994Z,78.62
2022-11-05T10:18:35.614Z,79.06
2022-11-05T10:22:05.733Z,79.98
2022-11-05T10:25:21.874Z,79.89
2022-11-05T10:28:30.545Z,80.03
2022-11-05T10:31:41.544Z,79.70
2022-11-05T10:34:48.441Z,79.81
2022-11-05T10:37:56.359Z,79.56
2022-11-05T10:41:28.370Z,80.39
2022-11-05T10:44:49.006Z,80.85
2022-11-05T10:48:24.816Z,80.19
2022-11-05T10:51:31.640Z,80.03
2022-11-05T10:54:39.197Z,80.09
2022-11-05T10:57:46.090Z,79.58
2022-11-05T11:01:11.245Z,78.97
2022-11-05T11:04:27.663Z,78.83
2022-11-05T11:07:33.866Z,78.47
2022-11-05T11:10:53.812Z,78.57
2022-11-05T11:14:07.547Z,78.95
2022-11-05T11:17:30.052Z,79.29
2022-11-05T11:20:47.564Z,79.41
2022-11-05T11:24:00.716Z,79.14
2022-11-05T11:27:15.828Z,78.78
2022-11-05T11:30:24.037Z,79.32
2022-11-05T11:33:32.621Z,78.93
2022-11-05T11:36:51.910Z,78.78
2022-11-05T11:40:05.524Z,79.23
2022-11-05T11:43:29.514Z,78.36
2022-11-05T11:46:38.298Z,78.09
2022-11-05T11:49:50.191Z,78.21
2022-11-05T11:52:58.475Z,78.48
2022-11-05T11:56:21.296Z,78.11
2022-11-05T12:00:01.945Z,78.78
2022-11-05T12:03:23.636Z,77.55
2022-11-05T12:06:43.259Z,78.40
2022-11-05T12:10:19.541Z,78.29
2022-11-05T12:13:58.630Z,77.12
2022-11-05T12:17:28.240Z,77.32
2022-11-05T12:21:03.879Z,77.36
2022-11-05T12:24:36.105Z,76.58
2022-11-05T12:28:13.376Z,76.66
2022-11-05T12:31:36.247Z,77.04
2022-11-05T12:35:02.800Z,76.79
2022-11-05T12:38:32.882Z,76.44
2022-11-05T12:41:53.546Z,76.80
2022-11-05T12:45:15.434Z,76.38
2022-11-05T12:48:54.106Z,76.82
2022-11-05T12:52:23.566Z,76.41
2022-11-05T12:55:37.965Z,76.12
2022-11-05T12:58:51.156Z,75.75
2022-11-05T13:02:11.624Z,76.10
2022-11-05T13:05:26.577Z,76.45
2022-11-05T13:08:45.955Z,76.99
2022-11-05T13:11:58.983Z,76.31
2022-11-05T13:15:28.729Z,76.33
2022-11-05T13:18:49.045Z,75.67
2022-11-05T13:22:08.041Z,75.63
2022-11-05T13:25:24.269Z,75.64
2022-11-05T13:28:47.082Z,76.32
2022-11-05T13:32:01.548Z,76.75
2022-11-05T13:35:27.200Z,76.26
2022-11-05T13:38:48.616Z,76.31
2022-11-05T13:42:26.489Z,76.29
2022-11-05T13:46:15.858Z,76.34
2022-11-05T13:50:01.911Z,75.88
2022-11-05T13:54:01.162Z,75.85
2022-11-05T13:57:36.618Z,74.71
2022-11-05T14:01:02.137Z,75.15
2022-11-05T14:04:09.649Z,75.20
2022-11-05T14:07:23.793Z,75.18
2022-11-05T14:10:50.725Z,74.42
2022-11-05T14:14:04.205Z,74.90
2022-11-05T14:17:31.621Z,74.98
2022-11-05T14:21:01.871Z,74.82
2022-11-05T14:24:31.204Z,74.87
2022-11-05T14:27:51.202Z,75.00
2022-11-05T14:30:57.029Z,74.62
2022-11-05T14:34:31.683Z,74.79
2022-11-05T14:37:42.856Z,74.47
2022-11-05T14:40:51.741Z,74.28
2022-11-05T14:44:11.102Z,74.58
2022-11-05T14:47:31.369Z,74.59
2022-11-05T14:50:44.992Z,74.16
2022-11-05T14:53:51.386Z,74.31
2022-11-05T14:57:00.760Z,74.37
2022-11-05T15:00:48.622Z,74.27
2022-11-05T15:04:23.245Z,73.71
2022-11-05T15:07:41.434Z,73.28
2022-11-05T15:10:48.840Z,74.05
2022-11-05T15:14:08.625Z,73.65
2022-11-05T15:17:30.095Z,73.36
2022-11-05T15:20:46.511Z,73.36
2022-11-05T15:23:59.334Z,73.38
2022-11-05T15:27:20.046Z,73.43
2022-11-05T15:30:27.885Z,73.60
2022-11-05T15:33:36.554Z,73.58
2022-11-05T15:36:43.872Z,74.27
2022-11-05T15:39:52.928Z,74.68
2022-11-05T15:43:12.882Z,74.51
2022-11-05T15:46:23.170Z,76.20
2022-11-05T15:49:32.399Z,76.39
2022-11-05T15:52:42.941Z,76.20
2022-11-05T15:56:02.090Z,76.35
2022-11-05T15:59:19.947Z,76.62
2022-11-05T16:02:40.441Z,76.46
2022-11-05T16:05:53.580Z,76.82
2022-11-05T16:08:59.810Z,77.14
2022-11-05T16:12:35.231Z,76.88
2022-11-05T16:15:41.075Z,76.08
2022-11-05T16:18:48.760Z,76.34
2022-11-05T16:22:00.058Z,76.42
2022-11-05T16:25:41.813Z,76.02
2022-11-05T16:28:54.259Z,76.07
2022-11-05T16:32:03.107Z,76.59
2022-11-05T16:35:19.565Z,76.68
2022-11-05T16:38:28.252Z,77.02
2022-11-05T16:41:34.957Z,76.82
2022-11-05T16:44:40.612Z,76.75
2022-11-05T16:47:48.406Z,76.96
2022-11-05T16:50:54.689Z,77.19
2022-11-05T16:54:03.144Z,77.41
2022-11-05T16:57:21.741Z,77.69
2022-11-05T17:00:28.961Z,77.42
2022-11-05T17:03:34.896Z,77.45
2022-11-05T17:06:40.584Z,77.25
2022-11-05T17:09:49.755Z,77.01
2022-11-05T17:12:56.913Z,77.63
2022-11-05T17:16:04.268Z,77.68
2022-11-05T17:19:14.476Z,77.27
2022-11-05T17:22:20.144Z,77.13
2022-11-05T17:25:29.478Z,77.08
2022-11-05T17:28:36.071Z,77.54
2022-11-05T17:31:43.386Z,77.30
2022-11-05T17:34:49.152Z,76.89
2022-11-05T17:37:54.779Z,77.45
2022-11-05T17:41:03.111Z,77.00
2022-11-05T17:44:09.091Z,77.03
2022-11-05T17:47:14.982Z,76.92
2022-11-05T17:50:21.372Z,76.81
2022-11-05T17:53:27.007Z,76.86
2022-11-05T17:56:40.274Z,77.06
2022-11-05T17:59:49.032Z,77.03
2022-11-05T18:02:57.295Z,76.86
2022-11-05T18:06:08.166Z,76.59
2022-11-05T18:09:15.314Z,76.45
2022-11-05T18:12:23.702Z,76.45
2022-11-05T18:15:29.583Z,76.17
2022-11-05T18:18:35.237Z,76.23
2022-11-05T18:21:41.477Z,76.33
2022-11-05T18:24:47.409Z,76.58
2022-11-05T18:27:55.816Z,76.48
2022-11-05T18:31:01.358Z,76.87
2022-11-05T18:34:10.575Z,76.02
2022-11-05T18:37:19.167Z,75.78
2022-11-05T18:40:24.949Z,75.80
2022-11-05T18:43:33.367Z,76.00
2022-11-05T18:50:05.532Z,76.25
2022-11-05T18:53:11.354Z,76.35
2022-11-05T18:56:20.920Z,76.68
2022-11-05T18:59:37.698Z,77.32
2022-11-05T19:02:44.273Z,77.16
2022-11-05T19:05:50.210Z,77.30
2022-11-05T19:08:57.948Z,77.19
2022-11-05T19:12:04.065Z,77.13
2022-11-05T19:15:13.689Z,77.15
2022-11-05T19:18:19.649Z,76.79
2022-11-05T19:21:27.786Z,77.40
2022-11-05T19:24:33.516Z,77.09
2022-11-05T19:27:44.561Z,77.27
2022-11-05T19:30:53.938Z,77.42
2022-11-05T19:34:04.080Z,77.35
2022-11-05T19:37:12.590Z,77.86
2022-11-05T19:40:18.227Z,77.80
2022-11-05T19:43:24.106Z,77.80
2022-11-05T19:46:34.044Z,77.50
2022-11-05T19:49:39.718Z,77.78
2022-11-05T19:52:45.311Z,77.87
2022-11-05T19:55:51.091Z,77.76
2022-11-05T19:58:57.702Z,77.83
2022-11-05T20:02:11.928Z,77.75
2022-11-05T20:05:21.584Z,77.59
2022-11-05T20:08:27.496Z,78.16
2022-11-05T20:11:33.121Z,77.90
2022-11-05T20:14:39.040Z,77.71
2022-11-05T20:17:51.442Z,77.43
2022-11-05T20:21:07.017Z,78.03
2022-11-05T20:24:22.415Z,77.72
2022-11-05T20:27:29.754Z,78.00
2022-11-05T20:30:36.118Z,77.51
2022-11-05T20:33:50.959Z,77.38
2022-11-05T20:36:59.075Z,77.47
2022-11-05T20:40:05.878Z,77.09
2022-11-05T20:43:12.666Z,76.84
2022-11-05T20:46:23.907Z,76.58
2022-11-05T20:49:37.891Z,76.34
2022-11-05T20:52:46.035Z,76.19
2022-11-05T20:55:53.966Z,76.23
2022-11-05T20:59:03.952Z,76.70
2022-11-05T21:02:14.196Z,76.99
2022-11-05T21:05:24.493Z,77.19
2022-11-05T21:08:32.350Z,76.90
2022-11-05T21:11:51.280Z,76.76
2022-11-05T21:14:57.324Z,76.93
2022-11-05T21:18:11.576Z,76.20
2022-11-05T21:21:23.590Z,76.42
2022-11-05T21:24:41.051Z,76.43
2022-11-05T21:27:47.250Z,76.39
2022-11-05T21:30:55.369Z,76.12
2022-11-05T21:34:02.837Z,76.29
2022-11-05T21:37:18.569Z,75.82
2022-11-05T21:40:27.918Z,76.00
2022-11-05T21:43:34.891Z,76.03
2022-11-05T21:46:41.579Z,76.01
2022-11-05T21:49:55.227Z,75.88
2022-11-05T21:53:16.861Z,76.33
2022-11-05T21:56:43.466Z,75.77
2022-11-05T21:59:52.483Z,75.17
2022-11-05T22:03:04.411Z,75.50
2022-11-05T22:06:11.616Z,75.53
2022-11-05T22:09:21.923Z,75.24
2022-11-05T22:12:29.706Z,74.78
2022-11-05T22:15:35.261Z,74.65
2022-11-05T22:18:43.786Z,74.36
2022-11-05T22:21:49.948Z,74.89
2022-11-05T22:24:58.316Z,75.42
2022-11-05T22:28:03.866Z,75.31
2022-11-05T22:31:16.343Z,75.30
2022-11-05T22:34:22.169Z,74.85
2022-11-05T22:37:27.921Z,75.13
2022-11-05T22:40:36.243Z,74.87
2022-11-05T22:43:42.956Z,75.04
2022-11-05T22:46:49.025Z,75.37
2022-11-05T22:49:54.652Z,74.90
2022-11-05T22:53:00.260Z,74.73
2022-11-05T22:56:11.747Z,74.60
2022-11-05T22:59:19.182Z,75.01
2022-11-05T23:02:25.049Z,74.59
2022-11-05T23:05:30.743Z,74.64
2022-11-05T23:08:48.807Z,74.71
2022-11-05T23:11:57.543Z,74.75
2022-11-05T23:15:06.385Z,74.95
2022-11-05T23:18:25.228Z,74.63
2022-11-05T23:21:43.148Z,75.26
2022-11-05T23:24:49.879Z,75.29
2022-11-05T23:27:58.301Z,75.67
2022-11-05T23:31:16.276Z,75.75
2022-11-05T23:34:23.522Z,74.92
2022-11-05T23:37:45.101Z,75.26
2022-11-05T23:41:02.823Z,76.02
2022-11-05T23:44:27.137Z,75.55
2022-11-05T23:47:45.151Z,75.09
2022-11-05T23:50:56.141Z,74.97
2022-11-05T23:54:01.756Z,75.74
2022-11-05T23:57:07.913Z,75.70
